Time;durP1;ratioP1;P1;durP2;ratioP2;P2;SDS_P1;SDS_P2;PMS_P1;PMS_P2;Temp;Humidity;BMP_temperature;BMP_pressure;BME280_temperature;BME280_humidity;BME280_pressure;Samples;Min_cycle;Max_cycle;Signal;HPM_P1;HPM_P2
2021/09/03 00:00:28;;;;;;;12.02;10.18;;;16.10;99.90;;;;;;2088858;28;20035;-68
2021/09/03 00:01:28;;;;;;;10.65;9.57;;;16.10;99.90;;;;;;2080324;28;20021;-68
2021/09/03 00:02:29;;;;;;;12.07;10.07;;;16.10;99.90;;;;;;2086834;28;20029;-68
2021/09/03 00:03:30;;;;;;;13.15;10.55;;;16.10;99.90;;;;;;2080362;28;20155;-68
2021/09/03 00:04:30;;;;;;;12.48;10.82;;;16.10;99.90;;;;;;2083852;28;20029;-68
2021/09/03 00:05:31;;;;;;;12.63;10.52;;;16.10;99.90;;;;;;2095042;28;20078;-68
2021/09/03 00:06:32;;;;;;;11.63;10.43;;;16.10;99.90;;;;;;2080622;28;20022;-68
2021/09/03 00:07:33;;;;;;;10.32;9.32;;;16.00;99.90;;;;;;2080602;28;20029;-68
2021/09/03 00:08:33;;;;;;;11.68;10.38;;;16.00;99.90;;;;;;2080649;28;20034;-68
2021/09/03 00:09:34;;;;;;;12.68;9.68;;;16.00;99.90;;;;;;2080246;28;20907;-68
2021/09/03 00:10:35;;;;;;;10.93;9.82;;;16.00;99.90;;;;;;2080722;28;20057;-68
2021/09/03 00:11:35;;;;;;;12.70;10.85;;;16.00;99.90;;;;;;2080238;28;20473;-68
2021/09/03 00:12:37;;;;;;;11.82;10.63;;;16.00;99.90;;;;;;2085366;28;20112;-68
2021/09/03 00:13:37;;;;;;;12.27;10.70;;;16.00;99.90;;;;;;2087501;28;20033;-68
2021/09/03 00:14:38;;;;;;;12.52;11.23;;;16.00;99.90;;;;;;2080773;28;20022;-68
2021/09/03 00:15:39;;;;;;;11.55;10.45;;;16.00;99.90;;;;;;2080550;28;20092;-68
2021/09/03 00:16:39;;;;;;;14.18;10.38;;;16.00;99.90;;;;;;2080633;28;20359;-68
2021/09/03 00:17:40;;;;;;;11.43;10.32;;;15.90;99.90;;;;;;2080968;28;20057;-68
2021/09/03 00:18:41;;;;;;;12.13;10.90;;;15.90;99.90;;;;;;2087110;28;20030;-68
2021/09/03 00:19:42;;;;;;;10.77;9.65;;;15.90;99.90;;;;;;2080444;28;20060;-68
2021/09/03 00:20:42;;;;;;;12.32;10.30;;;15.90;99.90;;;;;;2080594;28;20026;-68
2021/09/03 00:21:43;;;;;;;10.57;9.63;;;15.90;99.90;;;;;;2080117;28;20084;-68
2021/09/03 00:22:44;;;;;;;11.57;10.48;;;15.90;99.90;;;;;;2080170;28;20029;-68
2021/09/03 00:23:44;;;;;;;12.77;10.68;;;15.90;99.90;;;;;;2080208;28;20037;-68
2021/09/03 00:24:45;;;;;;;11.55;10.35;;;15.80;99.90;;;;;;2080806;28;20063;-68
2021/09/03 00:25:46;;;;;;;10.80;9.52;;;15.80;99.90;;;;;;2080269;28;20056;-68
2021/09/03 00:26:46;;;;;;;11.35;10.25;;;15.80;99.90;;;;;;2081569;28;20032;-68
2021/09/03 00:27:47;;;;;;;12.30;9.98;;;15.80;99.90;;;;;;2080554;28;20116;-68
2021/09/03 00:28:47;;;;;;;11.52;10.23;;;15.80;99.90;;;;;;2081193;28;20469;-68
2021/09/03 00:29:48;;;;;;;14.65;12.05;;;15.80;99.90;;;;;;2080204;28;20128;-68
2021/09/03 00:30:48;;;;;;;12.70;11.40;;;15.80;99.90;;;;;;2080331;28;20017;-68
2021/09/03 00:31:49;;;;;;;12.00;10.75;;;15.80;99.90;;;;;;2080032;28;20820;-68
2021/09/03 00:32:50;;;;;;;14.52;11.57;;;15.80;99.90;;;;;;2080511;28;20048;-68
2021/09/03 00:33:50;;;;;;;11.18;9.98;;;15.70;99.90;;;;;;2083553;28;20029;-68
2021/09/03 00:34:51;;;;;;;12.95;10.77;;;15.70;99.90;;;;;;2086640;28;20025;-68
2021/09/03 00:35:51;;;;;;;12.73;10.40;;;15.70;99.90;;;;;;2080159;28;20476;-68
2021/09/03 00:36:52;;;;;;;13.32;12.00;;;15.70;99.90;;;;;;2086763;28;20025;-68
2021/09/03 00:37:52;;;;;;;12.60;10.60;;;15.70;99.90;;;;;;2088409;28;20063;-68
2021/09/03 00:38:53;;;;;;;15.35;12.73;;;15.70;99.90;;;;;;2088736;28;20454;-68
2021/09/03 00:39:54;;;;;;;11.82;10.63;;;15.70;99.90;;;;;;2088349;28;20029;-68
2021/09/03 00:40:54;;;;;;;13.50;12.10;;;15.60;99.90;;;;;;2088828;28;20021;-68
2021/09/03 00:41:55;;;;;;;13.85;11.90;;;15.60;99.90;;;;;;2088032;28;20087;-68
2021/09/03 00:42:55;;;;;;;13.00;11.60;;;15.60;99.90;;;;;;2084053;28;20049;-68
2021/09/03 00:43:56;;;;;;;16.63;11.35;;;15.60;99.90;;;;;;2079834;28;20498;-68
2021/09/03 00:44:56;;;;;;;13.52;11.90;;;15.60;99.90;;;;;;2079681;28;20029;-68
2021/09/03 00:45:58;;;;;;;11.85;10.50;;;15.60;99.90;;;;;;2081023;28;20040;-68
2021/09/03 00:46:58;;;;;;;13.75;11.88;;;15.60;99.90;;;;;;2088743;28;20025;-68
2021/09/03 00:48:00;;;;;;;11.57;10.40;;;15.50;99.90;;;;;;2084625;28;20025;-68
2021/09/03 00:49:00;;;;;;;13.35;11.98;;;15.50;99.90;;;;;;2080034;28;20022;-68
2021/09/03 00:50:01;;;;;;;12.98;11.60;;;15.50;99.90;;;;;;2081192;28;20026;-68
2021/09/03 00:51:01;;;;;;;12.82;11.50;;;15.50;99.90;;;;;;2091388;28;20033;-68
2021/09/03 00:52:06;;;;;;;12.40;11.00;;;15.50;99.90;;;;;;2080162;28;20013;-68
2021/09/03 00:53:07;;;;;;;12.52;11.23;;;15.50;99.90;;;;;;2079747;28;20030;-68
2021/09/03 00:54:08;;;;;;;11.98;10.18;;;15.40;99.90;;;;;;2079958;28;20025;-68
2021/09/03 00:55:09;;;;;;;12.75;11.45;;;15.50;99.90;;;;;;2080102;28;20045;-68
2021/09/03 00:56:10;;;;;;;12.07;10.90;;;15.50;99.90;;;;;;2082304;28;20071;-68
2021/09/03 00:57:11;;;;;;;11.30;10.20;;;15.40;99.90;;;;;;2087661;28;20080;-68
2021/09/03 00:58:11;;;;;;;12.10;10.90;;;15.40;99.90;;;;;;2080586;28;20116;-68
2021/09/03 00:59:12;;;;;;;11.80;10.40;;;15.40;99.90;;;;;;2081737;28;20513;-68
2021/09/03 01:00:13;;;;;;;11.90;10.48;;;15.40;99.90;;;;;;2088747;28;20358;-68
2021/09/03 01:01:13;;;;;;;12.60;11.25;;;15.40;99.90;;;;;;2082220;28;20545;-68
2021/09/03 01:02:14;;;;;;;12.35;11.05;;;15.40;99.90;;;;;;2079951;28;20021;-68
2021/09/03 01:03:15;;;;;;;12.77;11.25;;;15.30;99.90;;;;;;2079591;28;20028;-68
2021/09/03 01:04:16;;;;;;;12.45;11.18;;;15.40;99.90;;;;;;2080366;28;20105;-68
2021/09/03 01:05:16;;;;;;;15.77;11.18;;;15.30;99.90;;;;;;2080176;28;20040;-68
2021/09/03 01:06:18;;;;;;;12.32;11.02;;;15.30;99.90;;;;;;2082130;28;20397;-68
2021/09/03 01:07:19;;;;;;;13.38;11.15;;;15.30;99.90;;;;;;2091390;28;20036;-68
2021/09/03 01:08:19;;;;;;;12.63;11.50;;;15.30;99.90;;;;;;2079639;28;20021;-68
2021/09/03 01:09:20;;;;;;;12.15;10.93;;;15.30;99.90;;;;;;2079373;28;20095;-68
2021/09/03 01:10:22;;;;;;;12.95;11.30;;;15.30;99.90;;;;;;2077679;28;20092;-68
2021/09/03 01:11:22;;;;;;;13.07;11.00;;;15.30;99.90;;;;;;2084897;28;20094;-68
2021/09/03 01:12:23;;;;;;;13.43;11.63;;;15.30;99.90;;;;;;2083531;28;20075;-68
2021/09/03 01:13:24;;;;;;;12.32;11.15;;;15.30;99.90;;;;;;2087050;28;20029;-68
2021/09/03 01:14:25;;;;;;;13.88;12.32;;;15.30;99.90;;;;;;2080018;28;20097;-68
2021/09/03 01:15:26;;;;;;;12.75;11.10;;;15.20;99.90;;;;;;2083821;28;20026;-68
2021/09/03 01:16:27;;;;;;;14.02;11.02;;;15.20;99.90;;;;;;2080084;28;20099;-68
2021/09/03 01:17:28;;;;;;;12.20;10.75;;;15.20;99.90;;;;;;2079123;28;20088;-68
2021/09/03 01:18:28;;;;;;;14.50;11.38;;;15.20;99.90;;;;;;2079663;28;20028;-68
2021/09/03 01:19:29;;;;;;;14.80;12.02;;;15.20;99.90;;;;;;2084576;28;20025;-68
2021/09/03 01:20:29;;;;;;;12.98;11.57;;;15.20;99.90;;;;;;2083166;28;20068;-68
2021/09/03 01:21:30;;;;;;;13.00;11.70;;;15.20;99.90;;;;;;2079860;28;20105;-68
2021/09/03 01:22:30;;;;;;;12.68;11.18;;;15.20;99.90;;;;;;2086180;28;20028;-68
2021/09/03 01:23:31;;;;;;;12.18;11.07;;;15.20;99.90;;;;;;2090835;28;20025;-68
2021/09/03 01:24:31;;;;;;;13.90;12.02;;;15.20;99.90;;;;;;2080052;28;20452;-68
2021/09/03 01:25:32;;;;;;;11.85;10.60;;;15.10;99.90;;;;;;2079711;28;20394;-68
2021/09/03 01:26:33;;;;;;;12.93;11.43;;;15.10;99.90;;;;;;2079999;28;20056;-68
2021/09/03 01:27:33;;;;;;;13.27;11.98;;;15.10;99.90;;;;;;2080816;28;20517;-68
2021/09/03 01:28:34;;;;;;;15.05;12.02;;;15.20;99.90;;;;;;2083988;28;20045;-68
2021/09/03 01:29:34;;;;;;;13.60;12.25;;;15.10;99.90;;;;;;2079980;28;20532;-68
2021/09/03 01:30:35;;;;;;;13.60;11.23;;;15.10;99.90;;;;;;2080555;28;20022;-68
2021/09/03 01:31:36;;;;;;;14.23;12.00;;;15.10;99.90;;;;;;2085483;28;20110;-69
2021/09/03 01:32:37;;;;;;;12.90;11.60;;;15.10;99.90;;;;;;2080765;28;20045;-69
2021/09/03 01:33:37;;;;;;;13.45;12.05;;;15.00;99.90;;;;;;2079517;28;20040;-68
2021/09/03 01:34:38;;;;;;;12.68;10.45;;;15.00;99.90;;;;;;2080010;28;20022;-68
2021/09/03 01:35:38;;;;;;;12.55;10.80;;;15.00;99.90;;;;;;2080014;28;20115;-68
2021/09/03 01:36:39;;;;;;;11.73;10.63;;;15.00;99.90;;;;;;2084050;28;20048;-68
2021/09/03 01:37:40;;;;;;;12.52;11.20;;;15.00;99.90;;;;;;2079783;28;20447;-68
2021/09/03 01:38:42;;;;;;;12.27;10.95;;;15.00;99.90;;;;;;2087391;28;20362;-68
2021/09/03 01:39:43;;;;;;;12.45;11.15;;;15.00;99.90;;;;;;2087908;28;20013;-68
2021/09/03 01:40:44;;;;;;;12.35;11.00;;;15.00;99.90;;;;;;2088064;28;20096;-68
2021/09/03 01:41:44;;;;;;;13.77;12.02;;;15.00;99.90;;;;;;2087481;28;20032;-68
2021/09/03 01:42:45;;;;;;;15.38;12.60;;;14.90;99.90;;;;;;2081271;28;20100;-68
2021/09/03 01:43:45;;;;;;;16.00;12.48;;;15.00;99.90;;;;;;2088616;28;20099;-68
2021/09/03 01:44:46;;;;;;;12.32;11.02;;;15.00;99.90;;;;;;2088757;28;20568;-68
2021/09/03 01:45:46;;;;;;;13.35;12.02;;;14.90;99.90;;;;;;2087493;28;20389;-69
2021/09/03 01:46:47;;;;;;;13.63;12.07;;;14.90;99.90;;;;;;2080773;28;20025;-68
2021/09/03 01:47:47;;;;;;;13.15;11.68;;;14.90;99.90;;;;;;2085633;28;20025;-69
2021/09/03 01:48:48;;;;;;;12.43;11.13;;;14.90;99.90;;;;;;2079816;28;20028;-68
2021/09/03 01:49:49;;;;;;;12.10;10.90;;;14.90;99.90;;;;;;2083463;28;20079;-68
2021/09/03 01:50:50;;;;;;;12.68;11.38;;;14.90;99.90;;;;;;2094696;28;20048;-69
2021/09/03 01:51:50;;;;;;;13.20;11.95;;;14.90;99.90;;;;;;2086659;28;20039;-68
2021/09/03 01:52:51;;;;;;;13.43;12.05;;;14.90;99.90;;;;;;2083475;28;20052;-68
2021/09/03 01:53:52;;;;;;;12.45;11.25;;;14.80;99.90;;;;;;2079672;28;20025;-68
2021/09/03 01:54:52;;;;;;;12.80;11.32;;;14.90;99.90;;;;;;2079730;28;20091;-68
2021/09/03 01:55:53;;;;;;;12.75;11.55;;;14.80;99.90;;;;;;2079728;28;20034;-68
2021/09/03 01:56:53;;;;;;;12.32;11.02;;;14.80;99.90;;;;;;2087689;28;20092;-69
2021/09/03 01:57:54;;;;;;;12.30;11.10;;;14.80;99.90;;;;;;2082663;28;20100;-69
2021/09/03 01:58:54;;;;;;;13.38;11.23;;;14.80;99.90;;;;;;2079733;28;20029;-69
2021/09/03 01:59:55;;;;;;;13.38;11.15;;;14.80;99.90;;;;;;2086449;28;20017;-69
2021/09/03 02:00:55;;;;;;;11.90;10.63;;;14.80;99.90;;;;;;2079825;28;20358;-69
2021/09/03 02:01:56;;;;;;;13.15;11.85;;;14.80;99.90;;;;;;2081210;28;20030;-69
2021/09/03 02:02:56;;;;;;;13.98;12.27;;;14.80;99.90;;;;;;2080007;28;20022;-68
2021/09/03 02:03:57;;;;;;;12.77;11.18;;;14.70;99.90;;;;;;2086608;28;20035;-68
2021/09/03 02:04:58;;;;;;;14.20;12.68;;;14.70;99.90;;;;;;2079591;28;20057;-69
2021/09/03 02:05:58;;;;;;;13.43;12.02;;;14.70;99.90;;;;;;2079902;28;20109;-69
2021/09/03 02:06:59;;;;;;;14.55;12.70;;;14.70;99.90;;;;;;2079708;28;20075;-69
2021/09/03 02:07:59;;;;;;;12.32;11.05;;;14.70;99.90;;;;;;2079839;28;20087;-68
2021/09/03 02:09:00;;;;;;;11.55;10.35;;;14.70;99.90;;;;;;2079592;28;20041;-68
2021/09/03 02:10:01;;;;;;;11.63;10.55;;;14.70;99.90;;;;;;2079904;28;20032;-68
2021/09/03 02:11:02;;;;;;;13.38;11.98;;;14.60;99.90;;;;;;2079492;28;20478;-69
2021/09/03 02:12:03;;;;;;;13.90;11.65;;;14.60;99.90;;;;;;2081819;28;20495;-69
2021/09/03 02:13:03;;;;;;;13.13;11.05;;;14.70;99.90;;;;;;2079280;28;20026;-69
2021/09/03 02:14:04;;;;;;;12.32;11.13;;;14.60;99.90;;;;;;2081025;28;20087;-69
2021/09/03 02:15:05;;;;;;;12.70;10.40;;;14.60;99.90;;;;;;2088018;28;20552;-69
2021/09/03 02:16:06;;;;;;;12.25;10.95;;;14.60;99.90;;;;;;2079953;28;20393;-69
2021/09/03 02:17:06;;;;;;;15.05;11.45;;;14.60;99.90;;;;;;2082554;28;20033;-69
2021/09/03 02:18:07;;;;;;;11.85;10.52;;;14.60;99.90;;;;;;2096592;28;20055;-69
2021/09/03 02:19:08;;;;;;;13.05;10.68;;;14.60;99.90;;;;;;2083995;28;20513;-69
2021/09/03 02:20:09;;;;;;;12.15;10.82;;;14.60;99.90;;;;;;2079707;28;20109;-69
2021/09/03 02:21:09;;;;;;;12.77;10.93;;;14.60;99.90;;;;;;2079832;28;20029;-70
2021/09/03 02:22:10;;;;;;;14.43;11.15;;;14.60;99.90;;;;;;2079230;28;20071;-69
2021/09/03 02:23:11;;;;;;;16.42;11.88;;;14.60;99.90;;;;;;2078801;28;20432;-69
2021/09/03 02:24:11;;;;;;;11.95;10.75;;;14.50;99.90;;;;;;2078896;28;20029;-69
2021/09/03 02:25:12;;;;;;;14.70;11.57;;;14.60;99.90;;;;;;2079780;28;20059;-69
2021/09/03 02:26:13;;;;;;;13.95;11.35;;;14.60;99.90;;;;;;2079362;28;20044;-69
2021/09/03 02:27:13;;;;;;;13.98;12.13;;;14.60;99.90;;;;;;2078866;28;20037;-69
2021/09/03 02:28:15;;;;;;;12.57;11.32;;;14.50;99.90;;;;;;2080561;28;20030;-69
2021/09/03 02:29:15;;;;;;;12.38;10.82;;;14.50;99.90;;;;;;2087833;28;20029;-69
2021/09/03 02:30:16;;;;;;;11.63;10.55;;;14.50;99.90;;;;;;2083744;28;20033;-69
2021/09/03 02:31:17;;;;;;;12.38;11.13;;;14.50;99.90;;;;;;2089181;28;20036;-69
2021/09/03 02:32:20;;;;;;;14.85;12.55;;;14.50;99.90;;;;;;2080789;28;20025;-69
2021/09/03 02:33:20;;;;;;;13.15;11.77;;;14.50;99.90;;;;;;2078971;28;20028;-69
2021/09/03 02:34:22;;;;;;;12.80;11.50;;;14.50;99.90;;;;;;2079563;28;20029;-69
2021/09/03 02:35:23;;;;;;;12.70;11.07;;;14.50;99.90;;;;;;2079693;28;20029;-69
2021/09/03 02:36:24;;;;;;;13.18;11.63;;;14.40;99.90;;;;;;2081878;28;20532;-69
2021/09/03 02:37:24;;;;;;;11.82;10.63;;;14.40;99.90;;;;;;2087979;28;20107;-69
2021/09/03 02:38:25;;;;;;;12.80;11.38;;;14.40;99.90;;;;;;2087823;28;20465;-69
2021/09/03 02:39:25;;;;;;;12.95;11.32;;;14.40;99.90;;;;;;2087621;28;20025;-69
2021/09/03 02:40:27;;;;;;;13.10;11.90;;;14.40;99.90;;;;;;2087970;28;20048;-69
2021/09/03 02:41:27;;;;;;;12.88;11.45;;;14.40;99.90;;;;;;2087638;28;20128;-69
2021/09/03 02:42:28;;;;;;;11.98;10.85;;;14.40;99.90;;;;;;2083176;28;20536;-69
2021/09/03 02:43:28;;;;;;;12.98;11.02;;;14.40;99.90;;;;;;2079499;28;20060;-69
2021/09/03 02:44:29;;;;;;;16.17;12.30;;;14.40;99.90;;;;;;2080642;28;20033;-69
2021/09/03 02:45:30;;;;;;;13.45;12.05;;;14.40;99.90;;;;;;2096278;28;20036;-69
2021/09/03 02:46:30;;;;;;;11.73;10.68;;;14.40;99.90;;;;;;2084902;28;20034;-69
2021/09/03 02:47:31;;;;;;;12.18;10.85;;;14.40;99.90;;;;;;2079746;28;20108;-69
2021/09/03 02:48:31;;;;;;;14.13;11.52;;;14.40;99.90;;;;;;2079465;28;20469;-69
2021/09/03 02:49:32;;;;;;;12.98;11.68;;;14.40;99.90;;;;;;2079535;28;20072;-69
2021/09/03 02:50:32;;;;;;;12.68;11.45;;;14.30;99.90;;;;;;2079454;28;20040;-69
2021/09/03 02:51:33;;;;;;;12.73;11.57;;;14.30;99.90;;;;;;2086148;28;20032;-69
2021/09/03 02:52:34;;;;;;;15.63;13.02;;;14.30;99.90;;;;;;2085402;28;20029;-69
2021/09/03 02:53:35;;;;;;;12.45;11.15;;;14.30;99.90;;;;;;2079578;28;20038;-69
2021/09/03 02:54:35;;;;;;;14.45;12.25;;;14.30;99.90;;;;;;2079101;28;20036;-69
2021/09/03 02:55:36;;;;;;;13.45;12.10;;;14.30;99.90;;;;;;2079793;28;20038;-69
2021/09/03 02:56:36;;;;;;;12.40;11.10;;;14.30;99.90;;;;;;2084532;28;20512;-69
2021/09/03 02:57:38;;;;;;;12.68;11.57;;;14.30;99.90;;;;;;2084097;28;20482;-69
2021/09/03 02:58:39;;;;;;;13.00;11.68;;;14.30;99.90;;;;;;2088165;28;20020;-69
2021/09/03 02:59:39;;;;;;;14.25;12.80;;;14.30;99.90;;;;;;2087227;28;20064;-69
2021/09/03 03:00:41;;;;;;;13.02;11.82;;;14.30;99.90;;;;;;2085753;28;20103;-69
2021/09/03 03:01:41;;;;;;;14.13;11.98;;;14.30;99.90;;;;;;2079175;28;20053;-69
2021/09/03 03:02:42;;;;;;;13.07;11.77;;;14.30;99.90;;;;;;2079323;28;20101;-69
2021/09/03 03:03:42;;;;;;;13.82;12.45;;;14.20;99.90;;;;;;2079387;28;20382;-69
2021/09/03 03:04:43;;;;;;;13.15;11.55;;;14.20;99.90;;;;;;2079115;28;20052;-69
2021/09/03 03:05:43;;;;;;;15.70;13.00;;;14.20;99.90;;;;;;2079172;28;20025;-69
2021/09/03 03:06:44;;;;;;;13.40;12.02;;;14.20;99.90;;;;;;2079453;28;20549;-69
2021/09/03 03:07:45;;;;;;;13.18;11.88;;;14.20;99.90;;;;;;2079178;28;20117;-69
2021/09/03 03:08:45;;;;;;;13.75;12.32;;;14.20;99.90;;;;;;2079762;28;20029;-69
2021/09/03 03:09:46;;;;;;;14.20;12.55;;;14.20;99.90;;;;;;2079383;28;20029;-69
2021/09/03 03:10:46;;;;;;;13.50;12.10;;;14.20;99.90;;;;;;2081289;28;20041;-69
2021/09/03 03:11:47;;;;;;;14.50;13.10;;;14.10;99.90;;;;;;2087404;28;20123;-69
2021/09/03 03:12:52;;;;;;;13.88;11.52;;;14.10;99.90;;;;;;2093572;28;20029;-69
2021/09/03 03:14:02;;;;;;;14.63;12.57;;;14.10;99.90;;;;;;2083873;28;20079;-69
2021/09/03 03:15:07;;;;;;;15.10;11.68;;;14.10;99.90;;;;;;2080686;28;20045;-69
2021/09/03 03:16:07;;;;;;;11.88;10.68;;;14.10;99.90;;;;;;2080850;28;20029;-69
2021/09/03 03:17:08;;;;;;;13.00;11.10;;;14.10;99.90;;;;;;2081003;28;20105;-69
2021/09/03 03:18:08;;;;;;;14.02;12.63;;;14.10;99.90;;;;;;2080876;28;20501;-69
2021/09/03 03:19:10;;;;;;;13.48;12.18;;;14.10;99.90;;;;;;2081212;28;20024;-69
2021/09/03 03:20:11;;;;;;;14.10;12.68;;;14.10;99.90;;;;;;2081966;28;20021;-69
2021/09/03 03:21:12;;;;;;;13.10;11.82;;;14.10;99.90;;;;;;2089123;28;20025;-69
2021/09/03 03:22:12;;;;;;;15.60;11.57;;;14.10;99.90;;;;;;2087467;28;20032;-69
2021/09/03 03:23:13;;;;;;;13.90;12.60;;;14.10;99.90;;;;;;2087686;28;20025;-69
2021/09/03 03:24:15;;;;;;;13.63;12.23;;;14.00;99.90;;;;;;2081417;28;20017;-69
2021/09/03 03:25:15;;;;;;;14.98;12.23;;;14.10;99.90;;;;;;2084837;28;20025;-69
2021/09/03 03:26:16;;;;;;;14.50;13.00;;;14.00;99.90;;;;;;2092594;28;20512;-69
2021/09/03 03:27:16;;;;;;;12.98;11.10;;;14.00;99.90;;;;;;2081756;28;20021;-69
2021/09/03 03:28:17;;;;;;;13.63;12.20;;;14.00;99.90;;;;;;2080440;28;20512;-69
2021/09/03 03:29:17;;;;;;;13.80;12.48;;;14.00;99.90;;;;;;2081133;28;20083;-69
2021/09/03 03:30:18;;;;;;;14.60;13.05;;;14.00;99.90;;;;;;2080973;28;20374;-69
2021/09/03 03:31:19;;;;;;;15.45;12.38;;;14.00;99.90;;;;;;2080810;28;20021;-69
2021/09/03 03:32:19;;;;;;;14.02;12.55;;;14.00;99.90;;;;;;2080459;28;20022;-69
2021/09/03 03:33:20;;;;;;;12.98;11.80;;;14.00;99.90;;;;;;2088247;28;20025;-69
2021/09/03 03:34:21;;;;;;;15.00;11.40;;;14.00;99.90;;;;;;2097331;28;20031;-69
2021/09/03 03:35:22;;;;;;;14.05;12.68;;;14.00;99.90;;;;;;2081920;28;20036;-69
2021/09/03 03:36:23;;;;;;;13.35;11.95;;;14.00;99.90;;;;;;2083115;28;20544;-69
2021/09/03 03:37:23;;;;;;;14.30;12.38;;;14.00;99.90;;;;;;2089324;28;20350;-69
2021/09/03 03:38:24;;;;;;;12.77;11.50;;;14.00;99.90;;;;;;2087490;28;20025;-69
2021/09/03 03:39:24;;;;;;;12.80;11.45;;;14.00;99.90;;;;;;2080799;28;20457;-69
2021/09/03 03:40:25;;;;;;;13.35;12.05;;;13.90;99.90;;;;;;2080873;28;20362;-69
2021/09/03 03:41:25;;;;;;;13.70;12.30;;;13.90;99.90;;;;;;2080213;28;20028;-69
2021/09/03 03:42:26;;;;;;;12.65;11.35;;;13.90;99.90;;;;;;2079862;28;20026;-69
2021/09/03 03:43:26;;;;;;;12.50;11.20;;;13.90;99.90;;;;;;2080277;28;20426;-69
2021/09/03 03:44:27;;;;;;;13.88;12.45;;;13.90;99.90;;;;;;2080884;28;20068;-69
2021/09/03 03:45:27;;;;;;;13.02;11.63;;;13.90;99.90;;;;;;2080611;28;20045;-69
2021/09/03 03:46:28;;;;;;;13.40;11.65;;;13.90;99.90;;;;;;2080876;28;20041;-69
2021/09/03 03:47:29;;;;;;;12.35;11.15;;;13.90;99.90;;;;;;2093876;28;20495;-69
2021/09/03 03:48:29;;;;;;;14.75;12.75;;;13.90;99.90;;;;;;2081788;28;20491;-69
2021/09/03 03:49:30;;;;;;;14.10;12.63;;;13.80;99.90;;;;;;2080512;28;20029;-69
2021/09/03 03:50:30;;;;;;;13.73;12.35;;;13.80;99.90;;;;;;2080669;28;20116;-69
2021/09/03 03:51:31;;;;;;;13.60;12.30;;;13.80;99.90;;;;;;2086873;28;20032;-69
2021/09/03 03:52:31;;;;;;;13.57;12.20;;;13.80;99.90;;;;;;2086981;28;20033;-69
2021/09/03 03:53:32;;;;;;;11.98;10.88;;;13.80;99.90;;;;;;2079514;28;20469;-70
2021/09/03 03:54:33;;;;;;;13.05;11.85;;;13.80;99.90;;;;;;2080160;28;20461;-69
2021/09/03 03:55:34;;;;;;;15.00;11.82;;;13.80;99.90;;;;;;2080625;28;20396;-69
2021/09/03 03:56:34;;;;;;;14.63;11.80;;;13.80;99.90;;;;;;2080544;28;20022;-69
2021/09/03 03:57:35;;;;;;;12.88;11.57;;;13.80;99.90;;;;;;2089735;28;20029;-69
2021/09/03 03:58:36;;;;;;;12.60;11.32;;;13.80;99.90;;;;;;2095730;28;20078;-69
2021/09/03 03:59:36;;;;;;;12.90;11.55;;;13.80;99.90;;;;;;2088190;28;20029;-69
2021/09/03 04:00:37;;;;;;;12.73;11.23;;;13.80;99.90;;;;;;2088729;28;20052;-69
2021/09/03 04:01:37;;;;;;;13.20;11.65;;;13.80;99.90;;;;;;2080166;28;20033;-69
2021/09/03 04:02:38;;;;;;;12.93;11.63;;;13.80;99.90;;;;;;2079718;28;20052;-69
2021/09/03 04:03:39;;;;;;;13.18;11.88;;;13.80;99.90;;;;;;2080016;28;20045;-69
2021/09/03 04:04:39;;;;;;;12.60;10.90;;;13.70;99.90;;;;;;2080539;28;20026;-69
2021/09/03 04:05:40;;;;;;;12.80;11.48;;;13.70;99.90;;;;;;2080341;28;20629;-69
2021/09/03 04:06:40;;;;;;;13.32;11.93;;;13.70;99.90;;;;;;2083673;28;20025;-69
2021/09/03 04:07:41;;;;;;;14.27;12.85;;;13.70;99.90;;;;;;2082565;28;20029;-69
2021/09/03 04:08:42;;;;;;;14.45;12.95;;;13.70;99.90;;;;;;2080657;28;20033;-69
2021/09/03 04:09:42;;;;;;;12.57;11.38;;;13.70;99.90;;;;;;2080575;28;20104;-69
2021/09/03 04:10:43;;;;;;;13.10;11.80;;;13.70;99.90;;;;;;2080404;28;20127;-69
2021/09/03 04:11:46;;;;;;;11.88;10.68;;;13.70;99.90;;;;;;2079585;28;20025;-69
2021/09/03 04:12:47;;;;;;;13.10;11.15;;;13.70;99.90;;;;;;2079681;28;20414;-69
2021/09/03 04:13:47;;;;;;;12.35;11.15;;;13.70;99.90;;;;;;2079936;28;20033;-69
2021/09/03 04:14:48;;;;;;;12.10;10.90;;;13.70;99.90;;;;;;2091740;28;20021;-69
2021/09/03 04:15:48;;;;;;;12.90;11.75;;;13.70;99.90;;;;;;2083617;28;20032;-69
2021/09/03 04:16:49;;;;;;;15.60;13.85;;;13.70;99.90;;;;;;2080933;28;20033;-69
2021/09/03 04:17:49;;;;;;;14.73;13.20;;;13.70;99.90;;;;;;2080912;28;20484;-69
2021/09/03 04:18:50;;;;;;;13.50;12.20;;;13.60;99.90;;;;;;2080278;28;20033;-69
2021/09/03 04:19:50;;;;;;;13.55;12.13;;;13.60;99.90;;;;;;2080402;28;20021;-69
2021/09/03 04:20:51;;;;;;;14.02;12.63;;;13.70;99.90;;;;;;2083831;28;20495;-69
2021/09/03 04:21:52;;;;;;;12.73;11.43;;;13.60;99.90;;;;;;2085868;28;20120;-69
2021/09/03 04:22:52;;;;;;;13.10;11.50;;;13.60;99.90;;;;;;2084057;28;20031;-69
2021/09/03 04:23:53;;;;;;;14.60;13.10;;;13.60;99.90;;;;;;2082817;28;20079;-69
2021/09/03 04:24:53;;;;;;;16.05;12.13;;;13.60;99.90;;;;;;2080367;28;20029;-69
2021/09/03 04:25:54;;;;;;;13.35;12.05;;;13.60;99.90;;;;;;2079933;28;20117;-69
2021/09/03 04:26:56;;;;;;;13.38;12.07;;;13.60;99.90;;;;;;2080080;28;20025;-69
2021/09/03 04:27:57;;;;;;;13.23;11.95;;;13.60;99.90;;;;;;2083091;28;20071;-69
2021/09/03 04:28:58;;;;;;;13.45;12.15;;;13.60;99.90;;;;;;2081277;28;20032;-69
2021/09/03 04:29:58;;;;;;;13.25;11.95;;;13.60;99.90;;;;;;2080841;28;20450;-69
2021/09/03 04:30:59;;;;;;;13.63;12.23;;;13.60;99.90;;;;;;2080560;28;20021;-69
2021/09/03 04:31:59;;;;;;;13.75;12.30;;;13.50;99.90;;;;;;2080264;28;20033;-69
2021/09/03 04:33:00;;;;;;;15.45;12.10;;;13.60;99.90;;;;;;2080016;28;20022;-69
2021/09/03 04:34:00;;;;;;;14.52;11.63;;;13.50;99.90;;;;;;2080474;28;20511;-69
2021/09/03 04:35:01;;;;;;;13.85;12.55;;;13.50;99.90;;;;;;2079539;28;20478;-69
2021/09/03 04:36:02;;;;;;;13.40;12.07;;;13.50;99.90;;;;;;2080080;28;20030;-69
2021/09/03 04:37:02;;;;;;;16.23;11.65;;;13.50;99.90;;;;;;2087922;28;20029;-69
2021/09/03 04:38:03;;;;;;;13.25;11.68;;;13.50;99.90;;;;;;2088829;28;20025;-69
2021/09/03 04:39:03;;;;;;;14.23;12.82;;;13.50;99.90;;;;;;2088439;28;20025;-69
2021/09/03 04:40:05;;;;;;;14.05;12.75;;;13.50;99.90;;;;;;2088722;28;20037;-69
2021/09/03 04:41:05;;;;;;;14.82;12.90;;;13.50;99.90;;;;;;2088612;28;20056;-69
2021/09/03 04:42:06;;;;;;;16.05;14.45;;;13.50;99.90;;;;;;2092964;28;20055;-69
2021/09/03 04:43:07;;;;;;;14.00;12.70;;;13.50;99.90;;;;;;2088159;28;20033;-69
2021/09/03 04:44:07;;;;;;;13.43;12.02;;;13.50;99.90;;;;;;2079810;28;20018;-70
2021/09/03 04:45:09;;;;;;;15.52;13.88;;;13.50;99.90;;;;;;2079554;28;20066;-69
2021/09/03 04:46:10;;;;;;;13.93;12.00;;;13.50;99.90;;;;;;2080289;28;20018;-69
2021/09/03 04:47:10;;;;;;;12.90;11.50;;;13.40;99.90;;;;;;2080293;28;20021;-69
2021/09/03 04:48:11;;;;;;;14.68;12.70;;;13.50;99.90;;;;;;2080268;28;20022;-69
2021/09/03 04:49:11;;;;;;;14.50;13.00;;;13.40;99.90;;;;;;2080405;28;20037;-69
2021/09/03 04:50:13;;;;;;;15.75;14.25;;;13.40;99.90;;;;;;2080349;28;20026;-69
2021/09/03 04:51:13;;;;;;;14.15;12.75;;;13.40;99.90;;;;;;2084184;28;20013;-69
2021/09/03 04:52:14;;;;;;;12.73;11.52;;;13.50;99.90;;;;;;2088429;28;20025;-69
2021/09/03 04:53:14;;;;;;;13.10;11.80;;;13.40;99.90;;;;;;2080776;28;20076;-69
2021/09/03 04:54:15;;;;;;;13.98;12.57;;;13.50;99.90;;;;;;2080040;28;20028;-69
2021/09/03 04:55:15;;;;;;;17.23;15.00;;;13.40;99.90;;;;;;2081417;28;20028;-69
2021/09/03 04:56:16;;;;;;;14.95;13.05;;;13.40;99.90;;;;;;2088191;28;20017;-69
2021/09/03 04:57:17;;;;;;;15.23;13.63;;;13.40;99.90;;;;;;2088095;28;20024;-69
2021/09/03 04:58:17;;;;;;;14.60;13.20;;;13.40;99.90;;;;;;2080183;28;20500;-69
2021/09/03 04:59:18;;;;;;;14.60;13.10;;;13.40;99.90;;;;;;2082563;28;20029;-69
2021/09/03 05:00:18;;;;;;;14.73;13.20;;;13.40;99.90;;;;;;2087486;28;20075;-69
2021/09/03 05:01:19;;;;;;;14.70;13.20;;;13.40;99.90;;;;;;2080660;28;20052;-69
2021/09/03 05:02:19;;;;;;;16.05;13.98;;;13.40;99.90;;;;;;2079806;28;20021;-69
2021/09/03 05:03:20;;;;;;;14.52;13.07;;;13.40;99.90;;;;;;2085893;28;20444;-69
2021/09/03 05:04:20;;;;;;;14.57;12.88;;;13.40;99.90;;;;;;2081674;28;20080;-69
2021/09/03 05:05:21;;;;;;;16.00;13.82;;;13.40;99.90;;;;;;2079571;28;20063;-69
2021/09/03 05:06:22;;;;;;;16.27;13.15;;;13.40;99.90;;;;;;2080129;28;20025;-69
2021/09/03 05:07:22;;;;;;;14.55;13.00;;;13.40;99.90;;;;;;2080274;28;20059;-69
2021/09/03 05:08:23;;;;;;;18.25;14.93;;;13.40;99.90;;;;;;2080064;28;20037;-69